Time;durP1;ratioP1;P1;durP2;ratioP2;P2;SDS_P1;SDS_P2;PMS_P1;PMS_P2;Temp;Humidity;BMP_temperature;BMP_pressure;BME280_temperature;BME280_humidity;BME280_pressure;Samples;Min_cycle;Max_cycle;Signal;HPM_P1;HPM_P2
2023/05/01 00:00:27;;;;;;;12.23;6.00;;;;;;;;;;5031246;28;20454;-73
2023/05/01 00:03:13;;;;;;;12.45;6.50;;;;;;;;;;5033131;28;20654;-71
2023/05/01 00:06:03;;;;;;;11.80;5.20;;;;;;;;;;5033792;28;20102;-71
2023/05/01 00:08:48;;;;;;;8.45;4.70;;;;;;;;;;5033089;28;20056;-73
2023/05/01 00:11:33;;;;;;;16.05;5.22;;;;;;;;;;5033544;28;20037;-73
2023/05/01 00:14:19;;;;;;;8.40;4.90;;;;;;;;;;5023611;28;20481;-68
2023/05/01 00:17:05;;;;;;;8.73;5.75;;;;;;;;;;5031578;28;20047;-71
2023/05/01 00:19:50;;;;;;;8.82;4.80;;;;;;;;;;5035810;28;20622;-73
2023/05/01 00:22:36;;;;;;;10.70;5.28;;;;;;;;;;5035493;28;20040;-73
2023/05/01 00:25:21;;;;;;;10.77;6.43;;;;;;;;;;5021565;28;20037;-73
2023/05/01 00:28:06;;;;;;;11.07;5.47;;;;;;;;;;5038487;28;20344;-73
2023/05/01 00:30:52;;;;;;;7.28;5.13;;;;;;;;;;5022466;28;20498;-72
2023/05/01 00:33:37;;;;;;;9.10;5.22;;;;;;;;;;5033283;28;20170;-72
2023/05/01 00:36:22;;;;;;;9.50;5.55;;;;;;;;;;5023797;28;20119;-74
2023/05/01 00:39:07;;;;;;;9.45;5.22;;;;;;;;;;5036790;28;20060;-72
2023/05/01 00:41:53;;;;;;;7.70;5.20;;;;;;;;;;5039829;28;20048;-72
2023/05/01 00:44:39;;;;;;;8.70;4.28;;;;;;;;;;5048704;28;20566;-72
2023/05/01 00:47:24;;;;;;;9.57;4.50;;;;;;;;;;5045434;28;20032;-72
2023/05/01 00:50:09;;;;;;;7.85;4.68;;;;;;;;;;5030516;28;20475;-74
2023/05/01 00:52:55;;;;;;;10.00;5.05;;;;;;;;;;5034454;28;20094;-71
2023/05/01 00:55:41;;;;;;;8.75;5.13;;;;;;;;;;5046276;28;20570;-73
2023/05/01 00:58:26;;;;;;;7.85;5.15;;;;;;;;;;5046492;28;20531;-70
2023/05/01 01:01:12;;;;;;;10.40;5.45;;;;;;;;;;5053735;28;20030;-70
2023/05/01 01:03:57;;;;;;;8.98;5.15;;;;;;;;;;5053005;28;20084;-70
2023/05/01 01:07:11;;;;;;;8.98;4.90;;;;;;;;;;5038823;28;20082;-71
2023/05/01 01:09:57;;;;;;;11.15;5.45;;;;;;;;;;4992355;28;20064;-74
2023/05/01 01:12:52;;;;;;;7.53;4.22;;;;;;;;;;5056212;28;20357;-70
2023/05/01 01:15:55;;;;;;;9.05;4.72;;;;;;;;;;5041715;28;20042;-71
2023/05/01 01:18:56;;;;;;;8.77;4.57;;;;;;;;;;5042618;28;20798;-70
2023/05/01 01:21:43;;;;;;;7.30;5.05;;;;;;;;;;5052566;28;20040;-71
2023/05/01 01:24:34;;;;;;;7.82;5.32;;;;;;;;;;5035374;28;20029;-71
2023/05/01 01:27:20;;;;;;;9.70;5.20;;;;;;;;;;5042744;28;20040;-69
2023/05/01 01:30:20;;;;;;;10.13;5.63;;;;;;;;;;5054832;28;20040;-69
2023/05/01 01:33:25;;;;;;;9.88;5.20;;;;;;;;;;5054470;28;20035;-71
2023/05/01 01:36:14;;;;;;;11.07;4.75;;;;;;;;;;5052498;28;20035;-70
2023/05/01 01:39:06;;;;;;;8.10;5.17;;;;;;;;;;5054695;28;20125;-70
2023/05/01 01:41:52;;;;;;;6.55;3.97;;;;;;;;;;5047038;28;21029;-70
2023/05/01 01:44:40;;;;;;;7.10;4.95;;;;;;;;;;5054787;28;20032;-74
2023/05/01 01:47:30;;;;;;;8.38;4.53;;;;;;;;;;5057956;28;20020;-69
2023/05/01 01:50:17;;;;;;;8.05;4.63;;;;;;;;;;5053802;28;20035;-75
2023/05/01 01:53:03;;;;;;;7.07;4.32;;;;;;;;;;5053429;28;20038;-74
2023/05/01 01:55:49;;;;;;;8.63;4.90;;;;;;;;;;5053659;28;20115;-74
2023/05/01 01:58:35;;;;;;;9.13;5.13;;;;;;;;;;5055214;28;20025;-75
2023/05/01 02:01:22;;;;;;;9.90;5.80;;;;;;;;;;5054662;28;20074;-73
2023/05/01 02:04:08;;;;;;;8.43;4.82;;;;;;;;;;5049402;28;20041;-70
2023/05/01 02:06:56;;;;;;;8.27;4.57;;;;;;;;;;5053446;28;20024;-73
2023/05/01 02:09:41;;;;;;;6.60;4.68;;;;;;;;;;5055360;28;20029;-75
2023/05/01 02:12:27;;;;;;;7.28;3.63;;;;;;;;;;5053986;28;20477;-73
2023/05/01 02:15:14;;;;;;;6.90;4.57;;;;;;;;;;5053372;28;20024;-75
2023/05/01 02:18:02;;;;;;;7.95;4.68;;;;;;;;;;5054581;28;20548;-76
2023/05/01 02:20:47;;;;;;;7.97;4.68;;;;;;;;;;5053342;28;20036;-75
2023/05/01 02:23:32;;;;;;;8.43;4.35;;;;;;;;;;5054717;28;20040;-70
2023/05/01 02:26:19;;;;;;;7.22;4.43;;;;;;;;;;5054146;28;20118;-74
2023/05/01 02:29:06;;;;;;;6.80;4.43;;;;;;;;;;5054868;28;20484;-74
2023/05/01 02:31:51;;;;;;;6.63;4.38;;;;;;;;;;5053789;28;20104;-74
2023/05/01 02:34:36;;;;;;;6.72;3.90;;;;;;;;;;5048662;28;20174;-74
2023/05/01 02:37:21;;;;;;;7.95;4.65;;;;;;;;;;5054513;28;20094;-74
2023/05/01 02:40:07;;;;;;;8.02;4.40;;;;;;;;;;5054140;28;20125;-70
2023/05/01 02:42:53;;;;;;;7.70;4.95;;;;;;;;;;5052595;28;20402;-69
2023/05/01 02:45:40;;;;;;;5.75;4.15;;;;;;;;;;5051105;28;20032;-69
2023/05/01 02:48:26;;;;;;;7.85;4.75;;;;;;;;;;5054671;28;20039;-70
2023/05/01 02:51:12;;;;;;;8.07;5.05;;;;;;;;;;5039966;28;20020;-71
2023/05/01 02:53:58;;;;;;;6.20;3.88;;;;;;;;;;5042192;28;20032;-69
2023/05/01 02:56:43;;;;;;;8.32;4.72;;;;;;;;;;5053173;28;20479;-70
2023/05/01 02:59:29;;;;;;;7.82;4.40;;;;;;;;;;5053804;28;20055;-75
2023/05/01 03:02:17;;;;;;;7.63;4.38;;;;;;;;;;5053119;28;20048;-69
2023/05/01 03:05:02;;;;;;;6.10;3.83;;;;;;;;;;5047569;28;20458;-71
2023/05/01 03:07:48;;;;;;;7.45;3.83;;;;;;;;;;5045160;28;20383;-70
2023/05/01 03:10:33;;;;;;;7.18;4.97;;;;;;;;;;5054104;28;20398;-70
2023/05/01 03:13:18;;;;;;;8.27;4.85;;;;;;;;;;5045454;28;20602;-69
2023/05/01 03:16:03;;;;;;;6.32;4.28;;;;;;;;;;5054407;28;20060;-70
2023/05/01 03:18:49;;;;;;;6.90;4.13;;;;;;;;;;5054002;28;20256;-71
2023/05/01 03:21:34;;;;;;;8.80;5.03;;;;;;;;;;5048843;28;20021;-72
2023/05/01 03:24:19;;;;;;;6.43;4.22;;;;;;;;;;5032499;28;20089;-71
2023/05/01 03:27:06;;;;;;;6.43;4.18;;;;;;;;;;5042143;28;20371;-71
2023/05/01 03:29:51;;;;;;;11.55;4.60;;;;;;;;;;5038858;28;20399;-70
2023/05/01 03:32:36;;;;;;;6.32;3.88;;;;;;;;;;5053192;28;20414;-70
2023/05/01 03:35:22;;;;;;;7.65;4.53;;;;;;;;;;5050521;28;20032;-71
2023/05/01 03:38:07;;;;;;;6.07;4.40;;;;;;;;;;5047377;28;20024;-74
2023/05/01 03:40:52;;;;;;;9.00;4.50;;;;;;;;;;5049422;28;20079;-75
2023/05/01 03:43:38;;;;;;;7.50;4.50;;;;;;;;;;5052858;28;20048;-75
2023/05/01 03:46:23;;;;;;;9.10;5.72;;;;;;;;;;5042429;28;20522;-75
2023/05/01 03:49:08;;;;;;;8.40;4.90;;;;;;;;;;5051758;28;20039;-74
2023/05/01 03:51:53;;;;;;;8.60;4.82;;;;;;;;;;5051257;28;20028;-77
2023/05/01 03:54:39;;;;;;;7.90;4.25;;;;;;;;;;5043092;28;20028;-69
2023/05/01 03:57:24;;;;;;;8.85;4.80;;;;;;;;;;5056579;28;20020;-74
2023/05/01 04:00:10;;;;;;;7.20;4.90;;;;;;;;;;5045523;28;20056;-74
2023/05/01 04:02:56;;;;;;;7.55;5.07;;;;;;;;;;5054216;28;20028;-74
2023/05/01 04:05:42;;;;;;;8.35;4.35;;;;;;;;;;5057664;28;20033;-76
2023/05/01 04:08:27;;;;;;;7.93;4.60;;;;;;;;;;5056322;28;20032;-76
2023/05/01 04:11:12;;;;;;;9.00;4.50;;;;;;;;;;5061290;28;20347;-75
2023/05/01 04:13:57;;;;;;;8.90;4.93;;;;;;;;;;5052850;28;20043;-70
2023/05/01 04:16:43;;;;;;;8.18;4.45;;;;;;;;;;5048026;28;20020;-72
2023/05/01 04:19:28;;;;;;;8.50;5.07;;;;;;;;;;5054910;28;20094;-69
2023/05/01 04:22:13;;;;;;;6.50;4.43;;;;;;;;;;5055752;28;20036;-70
2023/05/01 04:24:58;;;;;;;10.15;4.90;;;;;;;;;;5057196;28;20021;-71
2023/05/01 04:27:43;;;;;;;5.88;4.18;;;;;;;;;;5037677;28;20035;-71
2023/05/01 04:30:30;;;;;;;7.13;4.57;;;;;;;;;;5042733;28;20028;-75
2023/05/01 04:33:15;;;;;;;6.05;4.15;;;;;;;;;;5055563;28;20036;-70
2023/05/01 04:36:00;;;;;;;8.40;4.45;;;;;;;;;;5046540;28;20108;-71
2023/05/01 04:38:45;;;;;;;10.52;4.70;;;;;;;;;;5055541;28;20060;-70
2023/05/01 04:41:30;;;;;;;9.25;4.78;;;;;;;;;;5056197;28;20040;-69
2023/05/01 04:44:16;;;;;;;7.72;5.05;;;;;;;;;;5061172;28;20048;-69
2023/05/01 04:47:02;;;;;;;10.23;5.25;;;;;;;;;;5055822;28;20036;-70
2023/05/01 04:49:47;;;;;;;8.95;5.60;;;;;;;;;;5042911;28;20042;-70
2023/05/01 04:52:32;;;;;;;10.45;5.25;;;;;;;;;;5038200;28;20040;-70
2023/05/01 04:55:18;;;;;;;7.50;4.85;;;;;;;;;;5048563;28;20041;-69
2023/05/01 04:58:03;;;;;;;6.30;4.32;;;;;;;;;;5048769;28;20610;-69
2023/05/01 05:00:49;;;;;;;9.07;4.72;;;;;;;;;;5055555;28;20089;-71
2023/05/01 05:03:34;;;;;;;8.95;4.63;;;;;;;;;;5048632;28;20044;-70
2023/05/01 05:06:20;;;;;;;7.88;4.88;;;;;;;;;;5046627;28;20116;-70
2023/05/01 05:09:05;;;;;;;7.57;4.97;;;;;;;;;;5049707;28;20028;-70
2023/05/01 05:11:50;;;;;;;8.13;4.65;;;;;;;;;;5043614;28;20036;-71
2023/05/01 05:14:35;;;;;;;8.20;5.85;;;;;;;;;;5040618;28;20024;-71
2023/05/01 05:17:20;;;;;;;7.63;5.45;;;;;;;;;;5058642;28;20474;-70
2023/05/01 05:20:06;;;;;;;8.50;5.28;;;;;;;;;;5053107;28;20169;-70
2023/05/01 05:22:51;;;;;;;7.57;5.15;;;;;;;;;;5046196;28;20048;-69
2023/05/01 05:25:37;;;;;;;7.95;5.50;;;;;;;;;;5045887;28;20107;-70
2023/05/01 05:28:22;;;;;;;8.57;5.22;;;;;;;;;;5056082;28;20065;-72
2023/05/01 05:31:08;;;;;;;7.78;5.18;;;;;;;;;;5042172;28;20020;-69
2023/05/01 05:33:53;;;;;;;7.53;4.88;;;;;;;;;;5048654;28;20068;-69
2023/05/01 05:36:38;;;;;;;11.55;4.85;;;;;;;;;;5052753;28;20468;-70
2023/05/01 05:39:23;;;;;;;10.50;5.78;;;;;;;;;;5045115;28;20033;-69
2023/05/01 05:42:08;;;;;;;8.55;5.88;;;;;;;;;;5054802;28;20426;-69
2023/05/01 05:44:54;;;;;;;9.57;5.10;;;;;;;;;;5043261;28;20060;-71
2023/05/01 05:47:39;;;;;;;7.20;4.82;;;;;;;;;;5062322;28;20021;-72
2023/05/01 05:50:25;;;;;;;7.80;5.30;;;;;;;;;;5037566;28;20021;-73
2023/05/01 05:53:10;;;;;;;9.13;5.38;;;;;;;;;;5029661;28;20032;-73
2023/05/01 05:55:56;;;;;;;8.98;4.80;;;;;;;;;;5053117;28;20024;-71
2023/05/01 05:58:41;;;;;;;8.15;4.65;;;;;;;;;;5047139;28;20033;-74
2023/05/01 06:01:26;;;;;;;8.68;4.85;;;;;;;;;;5041693;28;20043;-73
2023/05/01 06:04:13;;;;;;;14.05;5.30;;;;;;;;;;5053536;28;20392;-71
2023/05/01 06:06:59;;;;;;;8.30;5.60;;;;;;;;;;5055578;28;20032;-71
2023/05/01 06:09:44;;;;;;;8.18;4.97;;;;;;;;;;5054242;28;20079;-71
2023/05/01 06:12:30;;;;;;;8.45;5.32;;;;;;;;;;5045702;28;20594;-71
2023/05/01 06:15:16;;;;;;;9.27;5.53;;;;;;;;;;5049370;28;20471;-70
2023/05/01 06:18:01;;;;;;;9.38;6.70;;;;;;;;;;5051148;28;20043;-71
2023/05/01 06:20:46;;;;;;;9.63;6.40;;;;;;;;;;5061935;28;20162;-74
2023/05/01 06:23:32;;;;;;;9.27;5.25;;;;;;;;;;5033648;28;20064;-71
2023/05/01 06:26:18;;;;;;;8.90;6.03;;;;;;;;;;5049864;28;20036;-71
2023/05/01 06:29:03;;;;;;;10.10;5.57;;;;;;;;;;5055300;28;20016;-71
2023/05/01 06:31:48;;;;;;;12.68;6.07;;;;;;;;;;5053945;28;20162;-71
2023/05/01 06:34:33;;;;;;;9.68;6.43;;;;;;;;;;5047528;28;20028;-70
2023/05/01 06:37:19;;;;;;;8.32;5.75;;;;;;;;;;5022852;28;20408;-71
2023/05/01 06:40:08;;;;;;;8.48;6.18;;;;;;;;;;5053976;28;20044;-68
2023/05/01 06:42:53;;;;;;;10.73;5.43;;;;;;;;;;5050824;28;20044;-75
2023/05/01 06:45:40;;;;;;;10.90;6.05;;;;;;;;;;5051167;28;20035;-75
2023/05/01 06:48:25;;;;;;;9.40;5.53;;;;;;;;;;5054041;28;20024;-73
2023/05/01 06:51:13;;;;;;;6.32;4.63;;;;;;;;;;5048642;28;20215;-74
2023/05/01 06:53:58;;;;;;;9.40;5.65;;;;;;;;;;5044361;28;20032;-75
2023/05/01 06:56:44;;;;;;;11.27;6.07;;;;;;;;;;5038927;28;20031;-74
2023/05/01 06:59:29;;;;;;;11.82;5.90;;;;;;;;;;5054100;28;20016;-75
2023/05/01 07:02:14;;;;;;;9.27;5.65;;;;;;;;;;5054311;28;20085;-74
2023/05/01 07:05:00;;;;;;;8.80;4.88;;;;;;;;;;5052794;28;20028;-77
2023/05/01 07:07:45;;;;;;;8.77;5.22;;;;;;;;;;5051748;28;20039;-75
2023/05/01 07:10:30;;;;;;;10.90;5.75;;;;;;;;;;5040522;28;20066;-76
2023/05/01 07:13:15;;;;;;;8.77;5.32;;;;;;;;;;5039638;28;20483;-76
2023/05/01 07:16:01;;;;;;;9.90;4.50;;;;;;;;;;5053703;28;20016;-76
2023/05/01 07:18:46;;;;;;;8.95;5.13;;;;;;;;;;5052879;28;20459;-76
2023/05/01 07:21:31;;;;;;;9.73;5.43;;;;;;;;;;5052684;28;20119;-77
2023/05/01 07:24:17;;;;;;;7.57;5.18;;;;;;;;;;5061509;28;20028;-77
2023/05/01 07:27:02;;;;;;;6.55;5.05;;;;;;;;;;5037407;28;20046;-76
2023/05/01 07:29:49;;;;;;;7.38;5.13;;;;;;;;;;5051500;28;20479;-75
2023/05/01 07:32:34;;;;;;;9.98;5.72;;;;;;;;;;5055127;28;20407;-76
2023/05/01 07:35:19;;;;;;;6.05;4.50;;;;;;;;;;5025818;28;20166;-73
2023/05/01 07:38:05;;;;;;;10.27;4.70;;;;;;;;;;5051675;28;20056;-73
2023/05/01 07:40:51;;;;;;;6.38;4.30;;;;;;;;;;5043387;28;20037;-73
2023/05/01 07:43:36;;;;;;;7.43;4.72;;;;;;;;;;5052292;28;20107;-72
2023/05/01 07:46:22;;;;;;;7.75;4.93;;;;;;;;;;5036986;28;20040;-72
2023/05/01 07:49:07;;;;;;;8.05;4.35;;;;;;;;;;5052318;28;20025;-71
2023/05/01 07:51:54;;;;;;;6.80;4.65;;;;;;;;;;5053362;28;20487;-71
2023/05/01 07:54:40;;;;;;;7.38;4.60;;;;;;;;;;5051188;28;20343;-71
2023/05/01 07:57:25;;;;;;;8.60;5.03;;;;;;;;;;5053285;28;20441;-70
2023/05/01 08:00:11;;;;;;;8.10;5.05;;;;;;;;;;5049670;28;20071;-70
2023/05/01 08:02:56;;;;;;;9.88;5.50;;;;;;;;;;5046811;28;20110;-74
2023/05/01 08:05:41;;;;;;;9.63;5.15;;;;;;;;;;5056955;28;20113;-71
2023/05/01 08:08:27;;;;;;;6.47;4.10;;;;;;;;;;5050940;28;20653;-72
2023/05/01 08:11:12;;;;;;;8.48;5.10;;;;;;;;;;5052583;28;20170;-72
2023/05/01 08:13:59;;;;;;;7.07;5.25;;;;;;;;;;5048981;28;20025;-73
2023/05/01 08:16:44;;;;;;;11.43;4.93;;;;;;;;;;5038293;28;20032;-70
2023/05/01 08:19:29;;;;;;;8.25;5.22;;;;;;;;;;5052655;28;20120;-70
2023/05/01 08:22:15;;;;;;;6.03;4.45;;;;;;;;;;5040495;28;20132;-69
2023/05/01 08:25:00;;;;;;;7.20;4.43;;;;;;;;;;5039717;28;20021;-70
2023/05/01 08:27:45;;;;;;;7.38;4.90;;;;;;;;;;5042222;28;20088;-71
2023/05/01 08:30:30;;;;;;;7.28;4.78;;;;;;;;;;5036420;28;20094;-75
2023/05/01 08:33:16;;;;;;;7.65;5.15;;;;;;;;;;5049232;28;20041;-70
2023/05/01 08:36:01;;;;;;;6.50;4.40;;;;;;;;;;5044047;28;20081;-73
2023/05/01 08:38:47;;;;;;;6.90;4.85;;;;;;;;;;5036830;28;20136;-71
2023/05/01 08:41:32;;;;;;;6.75;4.43;;;;;;;;;;5041868;28;20053;-70
2023/05/01 08:44:18;;;;;;;7.82;4.63;;;;;;;;;;5048362;28;20032;-72
2023/05/01 08:47:16;;;;;;;6.03;4.35;;;;;;;;;;5050304;28;20479;-69
2023/05/01 08:50:02;;;;;;;6.20;4.28;;;;;;;;;;5048618;28;20032;-76
2023/05/01 08:52:50;;;;;;;9.88;5.53;;;;;;;;;;5053244;28;20024;-69
2023/05/01 08:55:35;;;;;;;6.47;4.72;;;;;;;;;;5052051;28;20028;-68
2023/05/01 08:58:22;;;;;;;7.20;4.28;;;;;;;;;;5050174;28;20127;-68
2023/05/01 09:01:08;;;;;;;7.03;3.95;;;;;;;;;;5057923;28;20111;-67
2023/05/01 09:03:53;;;;;;;7.53;4.57;;;;;;;;;;5056053;28;20475;-69
2023/05/01 09:06:39;;;;;;;6.88;3.90;;;;;;;;;;5056734;28;20033;-74
2023/05/01 09:09:24;;;;;;;8.68;3.83;;;;;;;;;;5053668;28;20438;-71
2023/05/01 09:12:18;;;;;;;5.72;3.97;;;;;;;;;;5046694;28;20037;-68
2023/05/01 09:15:06;;;;;;;5.47;3.97;;;;;;;;;;5053381;28;20513;-69
2023/05/01 09:17:51;;;;;;;6.72;3.38;;;;;;;;;;5054433;28;20561;-71
2023/05/01 09:20:36;;;;;;;6.95;4.05;;;;;;;;;;5048263;28;20078;-71
2023/05/01 09:23:22;;;;;;;8.05;3.70;;;;;;;;;;5045293;28;20028;-71
2023/05/01 09:26:07;;;;;;;4.93;3.40;;;;;;;;;;5054970;28;20020;-73
2023/05/01 09:28:56;;;;;;;6.82;4.22;;;;;;;;;;5049440;28;20536;-70
2023/05/01 09:31:42;;;;;;;6.47;3.70;;;;;;;;;;5063427;28;20096;-70
2023/05/01 09:34:27;;;;;;;6.80;3.95;;;;;;;;;;5050002;28;20048;-70
2023/05/01 09:37:23;;;;;;;5.40;3.50;;;;;;;;;;5055988;28;20020;-69
2023/05/01 09:40:09;;;;;;;6.18;3.53;;;;;;;;;;5054173;28;20047;-70
2023/05/01 09:42:57;;;;;;;4.82;3.30;;;;;;;;;;5054011;28;20481;-69
2023/05/01 09:45:57;;;;;;;5.53;3.35;;;;;;;;;;5053026;28;20041;-72
2023/05/01 09:48:57;;;;;;;5.75;3.92;;;;;;;;;;5052637;28;20936;-68
2023/05/01 09:51:43;;;;;;;8.20;3.92;;;;;;;;;;5039102;28;20067;-68
2023/05/01 09:54:28;;;;;;;5.53;4.10;;;;;;;;;;5049570;28;20055;-68
2023/05/01 09:57:13;;;;;;;9.38;3.17;;;;;;;;;;5045387;28;20113;-69
2023/05/01 10:00:07;;;;;;;5.57;3.70;;;;;;;;;;5046618;28;20040;-70
2023/05/01 10:02:52;;;;;;;7.82;4.70;;;;;;;;;;5051970;28;20088;-72
2023/05/01 10:05:44;;;;;;;10.48;5.63;;;;;;;;;;5053546;28;20017;-72
2023/05/01 10:08:45;;;;;;;8.77;5.63;;;;;;;;;;5047113;28;20123;-73
2023/05/01 10:11:31;;;;;;;9.73;5.10;;;;;;;;;;5058768;28;20369;-72
2023/05/01 10:14:16;;;;;;;8.75;4.82;;;;;;;;;;5047352;28;20024;-71
2023/05/01 10:17:06;;;;;;;8.45;5.25;;;;;;;;;;5037484;28;20112;-78
2023/05/01 10:19:51;;;;;;;8.65;5.30;;;;;;;;;;5047957;28;20036;-70
2023/05/01 10:22:37;;;;;;;7.43;4.90;;;;;;;;;;5050777;28;20051;-79
2023/05/01 10:25:24;;;;;;;8.50;4.95;;;;;;;;;;5048475;28;20028;-80
2023/05/01 10:28:11;;;;;;;7.05;4.80;;;;;;;;;;5037242;28;20480;-75
2023/05/01 10:30:56;;;;;;;7.25;4.85;;;;;;;;;;5045553;28;20032;-77
2023/05/01 10:33:42;;;;;;;7.20;5.38;;;;;;;;;;5040564;28;20055;-78
2023/05/01 10:36:33;;;;;;;6.70;4.95;;;;;;;;;;5059814;28;20060;-78
2023/05/01 10:39:37;;;;;;;8.10;6.00;;;;;;;;;;5051227;28;20097;-72
2023/05/01 10:42:22;;;;;;;11.48;6.15;;;;;;;;;;5047806;28;20053;-70
2023/05/01 10:45:27;;;;;;;10.23;6.10;;;;;;;;;;5043266;28;20052;-69
2023/05/01 10:48:39;;;;;;;8.05;5.30;;;;;;;;;;5060709;28;20032;-68
2023/05/01 10:51:26;;;;;;;9.05;5.80;;;;;;;;;;5048728;28;20040;-69
2023/05/01 10:54:11;;;;;;;9.65;5.70;;;;;;;;;;5050949;28;20023;-68
2023/05/01 10:56:57;;;;;;;10.95;5.32;;;;;;;;;;5029438;28;20025;-71
2023/05/01 11:00:02;;;;;;;10.02;6.78;;;;;;;;;;5050755;28;20115;-69
2023/05/01 11:02:48;;;;;;;8.85;5.55;;;;;;;;;;5040034;28;20633;-68
2023/05/01 11:05:52;;;;;;;11.25;6.03;;;;;;;;;;5045761;28;20090;-69
2023/05/01 11:08:38;;;;;;;8.32;5.25;;;;;;;;;;5050640;28;20036;-68
2023/05/01 11:11:26;;;;;;;6.93;5.07;;;;;;;;;;5040994;28;20079;-68
2023/05/01 11:14:11;;;;;;;9.48;6.45;;;;;;;;;;5038697;28;20507;-68
2023/05/01 11:16:57;;;;;;;10.32;6.10;;;;;;;;;;5044494;28;20438;-68
2023/05/01 11:19:46;;;;;;;8.73;5.28;;;;;;;;;;5053719;28;20082;-69
2023/05/01 11:22:33;;;;;;;8.95;5.75;;;;;;;;;;5037393;28;20047;-69
2023/05/01 11:25:22;;;;;;;9.48;5.35;;;;;;;;;;5039175;28;20111;-67
2023/05/01 11:28:08;;;;;;;9.00;5.87;;;;;;;;;;5051902;28;20032;-68
2023/05/01 11:30:54;;;;;;;10.05;5.25;;;;;;;;;;5042189;28;20082;-67
2023/05/01 11:33:40;;;;;;;8.82;5.75;;;;;;;;;;5050781;28;20028;-70
2023/05/01 11:36:28;;;;;;;11.07;5.60;;;;;;;;;;5053656;28;20030;-70
2023/05/01 11:39:14;;;;;;;9.93;5.50;;;;;;;;;;5052820;28;20020;-70
2023/05/01 11:42:07;;;;;;;7.97;5.53;;;;;;;;;;5050405;28;20053;-70
2023/05/01 11:45:09;;;;;;;9.60;6.35;;;;;;;;;;5052171;28;20047;-70
2023/05/01 11:47:55;;;;;;;7.82;5.57;;;;;;;;;;5041316;28;20064;-71
2023/05/01 11:50:40;;;;;;;11.15;6.30;;;;;;;;;;5053406;28;20024;-72
2023/05/01 11:53:26;;;;;;;10.90;6.15;;;;;;;;;;5054035;28;20159;-69
2023/05/01 11:56:17;;;;;;;10.48;6.30;;;;;;;;;;5044045;28;20456;-70
2023/05/01 11:59:15;;;;;;;6.82;5.22;;;;;;;;;;5043088;28;20045;-70
2023/05/01 12:02:01;;;;;;;8.50;5.32;;;;;;;;;;5040183;28;20042;-71
2023/05/01 12:04:46;;;;;;;8.60;6.00;;;;;;;;;;5039547;28;20027;-70
2023/05/01 12:07:33;;;;;;;7.88;5.68;;;;;;;;;;5052754;28;20033;-69
2023/05/01 12:10:18;;;;;;;7.65;4.93;;;;;;;;;;5039449;28;20024;-70
2023/05/01 12:13:04;;;;;;;10.18;7.00;;;;;;;;;;5055154;28;20060;-70
2023/05/01 12:15:51;;;;;;;8.60;6.43;;;;;;;;;;5056987;28;20038;-69
2023/05/01 12:18:36;;;;;;;9.70;5.55;;;;;;;;;;5056395;28;20109;-69
2023/05/01 12:21:21;;;;;;;9.65;6.07;;;;;;;;;;5057141;28;20499;-70
2023/05/01 12:24:11;;;;;;;8.15;5.65;;;;;;;;;;5057535;28;20116;-70
2023/05/01 12:27:00;;;;;;;8.32;5.70;;;;;;;;;;5039529;28;20038;-69
2023/05/01 12:29:46;;;;;;;11.07;5.82;;;;;;;;;;5052474;28;20028;-77
2023/05/01 12:32:32;;;;;;;7.53;5.18;;;;;;;;;;5057234;28;20043;-72
2023/05/01 12:35:18;;;;;;;9.10;5.40;;;;;;;;;;5057002;28;20363;-70
2023/05/01 12:38:17;;;;;;;9.55;5.07;;;;;;;;;;5057186;28;20111;-71
2023/05/01 12:41:05;;;;;;;9.18;4.93;;;;;;;;;;5048653;28;20044;-70
2023/05/01 12:43:51;;;;;;;7.63;5.47;;;;;;;;;;5059056;28;20037;-71
2023/05/01 12:46:37;;;;;;;9.45;6.25;;;;;;;;;;5057076;28;20048;-70
2023/05/01 12:49:23;;;;;;;10.20;5.85;;;;;;;;;;5056648;28;20036;-73
2023/05/01 12:52:08;;;;;;;9.25;6.38;;;;;;;;;;5060083;28;20039;-72
2023/05/01 12:55:00;;;;;;;7.38;4.72;;;;;;;;;;5057733;28;20035;-71
2023/05/01 12:57:53;;;;;;;8.95;5.10;;;;;;;;;;5054740;28;20016;-70
2023/05/01 13:00:43;;;;;;;7.28;4.75;;;;;;;;;;5053145;28;20699;-71
2023/05/01 13:03:29;;;;;;;8.63;5.57;;;;;;;;;;5055084;28;20028;-71
2023/05/01 13:06:14;;;;;;;7.38;5.15;;;;;;;;;;5055975;28;20040;-71
2023/05/01 13:09:11;;;;;;;8.30;5.60;;;;;;;;;;5056045;28;20016;-77
2023/05/01 13:12:01;;;;;;;8.32;5.13;;;;;;;;;;5045514;28;20172;-76
2023/05/01 13:14:46;;;;;;;7.80;5.18;;;;;;;;;;5060617;28;20013;-76
2023/05/01 13:17:32;;;;;;;9.10;5.47;;;;;;;;;;5040022;28;20598;-78
2023/05/01 13:20:24;;;;;;;6.60;4.90;;;;;;;;;;5045008;28;20137;-77
2023/05/01 13:23:09;;;;;;;8.10;5.15;;;;;;;;;;5054653;28;20020;-76
2023/05/01 13:25:55;;;;;;;8.70;5.07;;;;;;;;;;5053857;28;20119;-67
2023/05/01 13:28:43;;;;;;;8.20;5.15;;;;;;;;;;5042597;28;20147;-68
2023/05/01 13:31:29;;;;;;;7.97;4.70;;;;;;;;;;5056090;28;20032;-68
2023/05/01 13:34:16;;;;;;;7.32;4.78;;;;;;;;;;5034577;28;20037;-68
2023/05/01 13:37:01;;;;;;;7.75;5.13;;;;;;;;;;5055404;28;20111;-69
2023/05/01 13:39:46;;;;;;;8.57;5.53;;;;;;;;;;5055788;28;20040;-68
2023/05/01 13:42:31;;;;;;;6.78;4.95;;;;;;;;;;5052477;28;20506;-69
2023/05/01 13:45:18;;;;;;;8.65;5.10;;;;;;;;;;5052987;28;20070;-67
2023/05/01 13:48:03;;;;;;;9.85;6.32;;;;;;;;;;5062266;28;20036;-68
2023/05/01 13:50:49;;;;;;;7.53;5.28;;;;;;;;;;5049238;28;20500;-70
2023/05/01 13:53:34;;;;;;;9.98;6.70;;;;;;;;;;5055269;28;20035;-69
2023/05/01 13:56:20;;;;;;;11.25;6.70;;;;;;;;;;5053614;28;20368;-69
2023/05/01 13:59:06;;;;;;;10.50;7.60;;;;;;;;;;5055481;28;20467;-68
2023/05/01 14:01:51;;;;;;;10.18;6.70;;;;;;;;;;5055255;28;20076;-70
2023/05/01 14:04:39;;;;;;;9.32;6.45;;;;;;;;;;5054327;28;20568;-70
2023/05/01 14:07:24;;;;;;;11.27;6.90;;;;;;;;;;5053028;28;20047;-71
2023/05/01 14:10:09;;;;;;;9.75;7.32;;;;;;;;;;5055259;28;20020;-70
2023/05/01 14:12:56;;;;;;;13.15;8.55;;;;;;;;;;5044527;28;20063;-71
2023/05/01 14:15:42;;;;;;;13.60;8.45;;;;;;;;;;5047514;28;20029;-71
2023/05/01 14:18:28;;;;;;;11.60;8.13;;;;;;;;;;5059326;28;20024;-70
2023/05/01 14:21:14;;;;;;;11.95;7.93;;;;;;;;;;5055509;28;20036;-70
2023/05/01 14:24:06;;;;;;;9.85;7.00;;;;;;;;;;5051280;28;20043;-70
2023/05/01 14:26:51;;;;;;;12.55;7.30;;;;;;;;;;5052768;28;20036;-71
2023/05/01 14:29:40;;;;;;;8.43;5.93;;;;;;;;;;5054697;28;20124;-69
2023/05/01 14:32:27;;;;;;;10.30;6.30;;;;;;;;;;5055073;28;20442;-69
2023/05/01 14:35:12;;;;;;;10.73;5.97;;;;;;;;;;5040007;28;20064;-71
2023/05/01 14:38:03;;;;;;;19.85;8.32;;;;;;;;;;5054362;28;20033;-74
2023/05/01 14:40:49;;;;;;;13.95;7.22;;;;;;;;;;5040330;28;20523;-76
2023/05/01 14:43:34;;;;;;;12.15;5.63;;;;;;;;;;5035859;28;20407;-75
2023/05/01 14:46:29;;;;;;;9.52;5.47;;;;;;;;;;5038090;28;20430;-75
2023/05/01 14:49:20;;;;;;;7.82;5.30;;;;;;;;;;5039564;28;20537;-75
2023/05/01 14:52:05;;;;;;;7.60;5.18;;;;;;;;;;5061272;28;20602;-76
2023/05/01 14:54:52;;;;;;;7.13;4.88;;;;;;;;;;5043177;28;20016;-75
2023/05/01 14:57:37;;;;;;;7.13;4.57;;;;;;;;;;5049312;28;20119;-76
2023/05/01 15:00:24;;;;;;;7.32;4.63;;;;;;;;;;5041027;28;20369;-74
2023/05/01 15:03:09;;;;;;;7.15;3.55;;;;;;;;;;5054841;28;20061;-76
2023/05/01 15:05:55;;;;;;;8.02;5.00;;;;;;;;;;5049717;28;20112;-74
2023/05/01 15:08:40;;;;;;;7.38;4.80;;;;;;;;;;5054403;28;20051;-75
2023/05/01 15:11:26;;;;;;;7.97;5.32;;;;;;;;;;5055685;28;20039;-75
2023/05/01 15:14:11;;;;;;;10.45;6.63;;;;;;;;;;5051603;28;20020;-69
2023/05/01 15:16:56;;;;;;;9.40;6.35;;;;;;;;;;5042618;28;20064;-67
2023/05/01 15:19:41;;;;;;;11.07;7.32;;;;;;;;;;5054141;28;20107;-70
2023/05/01 15:22:27;;;;;;;11.52;7.72;;;;;;;;;;5057686;28;20028;-69
2023/05/01 15:25:12;;;;;;;10.40;7.43;;;;;;;;;;5055327;28;20016;-71
2023/05/01 15:27:57;;;;;;;11.88;8.25;;;;;;;;;;5045627;28;20028;-70
2023/05/01 15:30:43;;;;;;;11.63;8.07;;;;;;;;;;5041003;28;20033;-72
2023/05/01 15:33:28;;;;;;;9.93;7.20;;;;;;;;;;5051380;28;20060;-69
2023/05/01 15:36:13;;;;;;;40.70;11.30;;;;;;;;;;5053907;28;20032;-70
2023/05/01 15:38:59;;;;;;;10.85;6.20;;;;;;;;;;5051759;28;20035;-70
2023/05/01 15:41:45;;;;;;;9.85;6.28;;;;;;;;;;5053290;28;20053;-70
2023/05/01 15:44:30;;;;;;;11.45;6.28;;;;;;;;;;5053221;28;20388;-72
2023/05/01 15:47:15;;;;;;;9.20;5.38;;;;;;;;;;5051725;28;20032;-70
2023/05/01 15:50:01;;;;;;;9.98;5.43;;;;;;;;;;5053972;28;20717;-70
2023/05/01 15:52:46;;;;;;;9.27;5.30;;;;;;;;;;5056214;28;20020;-70
2023/05/01 15:55:33;;;;;;;7.03;4.47;;;;;;;;;;5066097;28;20024;-71
2023/05/01 15:58:21;;;;;;;9.98;5.20;;;;;;;;;;5055222;28;20905;-71
2023/05/01 16:01:07;;;;;;;8.07;4.63;;;;;;;;;;5058005;28;20051;-72
2023/05/01 16:03:52;;;;;;;9.95;5.65;;;;;;;;;;5036650;28;20032;-70
2023/05/01 16:06:38;;;;;;;10.48;5.82;;;;;;;;;;5066873;28;20434;-71
2023/05/01 16:09:28;;;;;;;7.65;5.22;;;;;;;;;;5055994;28;20029;-70
2023/05/01 16:12:13;;;;;;;8.45;5.68;;;;;;;;;;5058002;28;20472;-70
2023/05/01 16:15:00;;;;;;;13.18;7.97;;;;;;;;;;5057030;28;20025;-78
2023/05/01 16:17:46;;;;;;;7.25;5.25;;;;;;;;;;5058007;28;20032;-74
2023/05/01 16:20:33;;;;;;;7.55;5.18;;;;;;;;;;5045668;28;20668;-77
2023/05/01 16:23:19;;;;;;;7.90;4.97;;;;;;;;;;5054796;28;20085;-75
2023/05/01 16:26:04;;;;;;;9.38;5.07;;;;;;;;;;5058939;28;20028;-75
2023/05/01 16:28:50;;;;;;;6.97;4.60;;;;;;;;;;5058559;28;20020;-70
2023/05/01 16:31:35;;;;;;;6.32;4.20;;;;;;;;;;5053852;28;20396;-74
2023/05/01 16:34:22;;;;;;;10.90;4.05;;;;;;;;;;5043518;28;20067;-75
2023/05/01 16:37:08;;;;;;;8.45;5.03;;;;;;;;;;5054051;28;20036;-74